Time;durP1;ratioP1;P1;durP2;ratioP2;P2;SDS_P1;SDS_P2;PMS_P1;PMS_P2;Temp;Humidity;BMP_temperature;BMP_pressure;BME280_temperature;BME280_humidity;BME280_pressure;Samples;Min_cycle;Max_cycle;Signal;HPM_P1;HPM_P2
2022/04/04 00:01:16;;;;;;;0.22;0.10;;;;;;;;;;4210348;28;20048;-31
2022/04/04 00:03:17;;;;;;;0.03;0.03;;;;;;;;;;4211096;28;20059;-32
2022/04/04 00:05:20;;;;;;;0.10;0.00;;;;;;;;;;4210803;28;20051;-33
2022/04/04 00:07:22;;;;;;;0.40;0.10;;;;;;;;;;4210829;28;20464;-37
2022/04/04 00:09:23;;;;;;;0.13;0.00;;;;;;;;;;4210892;28;20195;-32
2022/04/04 00:11:24;;;;;;;0.00;0.00;;;;;;;;;;4210223;28;20130;-32
2022/04/04 00:13:25;;;;;;;0.10;0.10;;;;;;;;;;4171946;28;1111694;-36
2022/04/04 00:15:27;;;;;;;0.10;0.00;;;;;;;;;;4211555;28;20052;-37
2022/04/04 00:17:28;;;;;;;0.08;0.08;;;;;;;;;;4210075;28;20085;-34
2022/04/04 00:19:29;;;;;;;0.20;0.20;;;;;;;;;;4211215;28;20497;-36
2022/04/04 00:21:30;;;;;;;0.22;0.00;;;;;;;;;;4211392;28;20097;-32
2022/04/04 00:23:31;;;;;;;0.22;0.10;;;;;;;;;;4211729;28;20048;-31
2022/04/04 00:25:32;;;;;;;0.00;0.00;;;;;;;;;;4210887;28;20100;-35
2022/04/04 00:27:33;;;;;;;0.30;0.05;;;;;;;;;;4210026;28;20052;-34
2022/04/04 00:29:34;;;;;;;0.32;0.32;;;;;;;;;;4211443;28;20104;-33
2022/04/04 00:31:35;;;;;;;0.00;0.00;;;;;;;;;;4211370;28;20528;-32
2022/04/04 00:33:36;;;;;;;0.13;0.10;;;;;;;;;;4209648;28;20048;-35
2022/04/04 00:35:37;;;;;;;0.10;0.00;;;;;;;;;;4209735;28;20044;-34
2022/04/04 00:37:38;;;;;;;0.10;0.10;;;;;;;;;;4211534;28;20051;-33
2022/04/04 00:39:40;;;;;;;0.30;0.10;;;;;;;;;;4210667;28;20321;-33
2022/04/04 00:41:43;;;;;;;0.30;0.30;;;;;;;;;;4211150;28;20425;-32
2022/04/04 00:43:44;;;;;;;0.20;0.00;;;;;;;;;;4210104;28;20097;-34
2022/04/04 00:45:45;;;;;;;0.82;0.10;;;;;;;;;;4210962;28;20098;-33
2022/04/04 00:47:47;;;;;;;0.10;0.10;;;;;;;;;;4211028;28;20509;-33
2022/04/04 00:49:48;;;;;;;0.28;0.08;;;;;;;;;;4211208;28;20051;-35
2022/04/04 00:51:49;;;;;;;0.00;0.00;;;;;;;;;;4211074;28;20044;-32
2022/04/04 00:53:50;;;;;;;0.15;0.00;;;;;;;;;;4211318;28;20056;-32
2022/04/04 00:55:51;;;;;;;0.20;0.10;;;;;;;;;;4210701;28;20127;-34
2022/04/04 00:57:54;;;;;;;0.15;0.10;;;;;;;;;;4211363;28;20069;-33
2022/04/04 00:59:55;;;;;;;0.40;0.10;;;;;;;;;;4210810;28;20047;-33
2022/04/04 01:01:56;;;;;;;0.25;0.13;;;;;;;;;;4210937;28;20051;-35
2022/04/04 01:03:57;;;;;;;0.00;0.00;;;;;;;;;;4211203;28;20101;-33
2022/04/04 01:05:59;;;;;;;0.20;0.10;;;;;;;;;;4210754;28;20518;-33
2022/04/04 01:08:00;;;;;;;0.00;0.00;;;;;;;;;;4211019;28;20129;-32
2022/04/04 01:10:01;;;;;;;0.00;0.00;;;;;;;;;;4210718;28;20052;-32
2022/04/04 01:12:09;;;;;;;0.05;0.05;;;;;;;;;;4213104;28;20395;-32
2022/04/04 01:14:09;;;;;;;0.10;0.00;;;;;;;;;;4214184;28;20048;-34
2022/04/04 01:16:10;;;;;;;0.10;0.00;;;;;;;;;;4213860;28;20055;-32
2022/04/04 01:18:11;;;;;;;0.00;0.00;;;;;;;;;;4214078;28;20106;-35
2022/04/04 01:20:12;;;;;;;0.28;0.10;;;;;;;;;;4213689;28;20478;-32
2022/04/04 01:22:14;;;;;;;0.10;0.00;;;;;;;;;;4213883;28;20055;-34
2022/04/04 01:24:18;;;;;;;0.40;0.10;;;;;;;;;;4213768;28;20108;-33
2022/04/04 01:26:19;;;;;;;0.17;0.08;;;;;;;;;;4213158;28;20048;-32
2022/04/04 01:28:20;;;;;;;0.38;0.10;;;;;;;;;;4213759;28;20048;-37
2022/04/04 01:30:22;;;;;;;0.40;0.20;;;;;;;;;;4213817;28;20093;-32
2022/04/04 01:32:23;;;;;;;0.20;0.10;;;;;;;;;;4213317;28;20052;-33
2022/04/04 01:34:25;;;;;;;0.00;0.00;;;;;;;;;;4213634;28;20467;-34
2022/04/04 01:36:26;;;;;;;0.20;0.10;;;;;;;;;;4213500;28;20456;-33
2022/04/04 01:38:27;;;;;;;1.55;0.10;;;;;;;;;;4213441;28;20135;-33
2022/04/04 01:40:28;;;;;;;0.10;0.10;;;;;;;;;;4212959;28;20512;-35
2022/04/04 01:42:29;;;;;;;0.28;0.10;;;;;;;;;;4213848;28;20074;-31
2022/04/04 01:44:31;;;;;;;0.10;0.10;;;;;;;;;;4213443;28;20052;-32
2022/04/04 01:46:32;;;;;;;0.00;0.00;;;;;;;;;;4213346;28;20105;-35
2022/04/04 01:48:36;;;;;;;0.05;0.05;;;;;;;;;;4213517;28;20055;-32
2022/04/04 01:50:37;;;;;;;0.00;0.00;;;;;;;;;;4213235;28;20052;-32
2022/04/04 01:52:39;;;;;;;0.10;0.10;;;;;;;;;;4213396;28;20097;-33
2022/04/04 01:54:40;;;;;;;0.22;0.08;;;;;;;;;;4212786;28;20104;-35
2022/04/04 01:56:41;;;;;;;0.17;0.10;;;;;;;;;;4213175;28;20093;-34
2022/04/04 01:58:43;;;;;;;0.00;0.00;;;;;;;;;;4212092;28;20044;-31
2022/04/04 02:00:44;;;;;;;0.35;0.10;;;;;;;;;;4212750;28;20510;-35
2022/04/04 02:02:45;;;;;;;0.10;0.00;;;;;;;;;;4213365;28;20051;-32
2022/04/04 02:04:45;;;;;;;0.20;0.20;;;;;;;;;;4213089;28;20048;-32
2022/04/04 02:06:47;;;;;;;0.20;0.10;;;;;;;;;;4213165;28;20051;-32
2022/04/04 02:08:49;;;;;;;0.10;0.08;;;;;;;;;;4213252;28;20055;-34
2022/04/04 02:10:49;;;;;;;0.10;0.10;;;;;;;;;;4212473;28;20384;-32
2022/04/04 02:12:50;;;;;;;0.08;0.08;;;;;;;;;;4213235;28;20105;-35
2022/04/04 02:14:51;;;;;;;0.10;0.10;;;;;;;;;;4213114;28;20051;-33
2022/04/04 02:16:53;;;;;;;0.20;0.10;;;;;;;;;;4213129;28;20056;-34
2022/04/04 02:18:53;;;;;;;0.13;0.03;;;;;;;;;;4213006;28;20064;-33
2022/04/04 02:20:55;;;;;;;0.38;0.10;;;;;;;;;;4212648;28;20052;-32
2022/04/04 02:22:56;;;;;;;0.00;0.00;;;;;;;;;;4211711;28;20534;-34
2022/04/04 02:24:57;;;;;;;0.10;0.03;;;;;;;;;;4212621;28;20051;-33
2022/04/04 02:26:58;;;;;;;0.00;0.00;;;;;;;;;;4213028;28;20044;-32
2022/04/04 02:28:59;;;;;;;0.00;0.00;;;;;;;;;;4212989;28;20471;-36
2022/04/04 02:31:01;;;;;;;0.10;0.05;;;;;;;;;;4211250;28;20490;-33
2022/04/04 02:33:02;;;;;;;0.15;0.03;;;;;;;;;;4212979;28;20047;-34
2022/04/04 02:35:03;;;;;;;0.03;0.03;;;;;;;;;;4212457;28;20054;-35
2022/04/04 02:37:04;;;;;;;0.25;0.10;;;;;;;;;;4212792;28;20501;-34
2022/04/04 02:39:05;;;;;;;0.10;0.10;;;;;;;;;;4212466;28;20089;-31
2022/04/04 02:41:06;;;;;;;0.10;0.10;;;;;;;;;;4211899;28;20065;-32
2022/04/04 02:43:07;;;;;;;0.75;0.10;;;;;;;;;;4212735;28;20082;-35
2022/04/04 02:45:08;;;;;;;0.10;0.10;;;;;;;;;;4212349;28;20329;-31
2022/04/04 02:47:09;;;;;;;0.10;0.00;;;;;;;;;;4212626;28;20113;-35
2022/04/04 02:49:11;;;;;;;0.10;0.10;;;;;;;;;;4212338;28;20075;-34
2022/04/04 02:51:12;;;;;;;0.10;0.10;;;;;;;;;;4210673;28;20044;-33
2022/04/04 02:53:14;;;;;;;0.10;0.10;;;;;;;;;;4212244;28;20056;-33
2022/04/04 02:57:34;;;;;;;0.10;0.10;;;;;;;;;;4212699;28;20044;-32
2022/04/04 02:59:36;;;;;;;0.15;0.10;;;;;;;;;;4211894;28;20413;-33
2022/04/04 03:01:37;;;;;;;0.00;0.00;;;;;;;;;;4212261;28;20250;-31
2022/04/04 03:03:39;;;;;;;0.45;0.10;;;;;;;;;;4212040;28;20048;-32
2022/04/04 03:05:40;;;;;;;0.20;0.00;;;;;;;;;;4210566;28;20071;-34
2022/04/04 03:07:42;;;;;;;0.00;0.00;;;;;;;;;;4212130;28;20052;-32
2022/04/04 03:09:43;;;;;;;0.03;0.03;;;;;;;;;;4211654;28;20078;-32
2022/04/04 03:11:43;;;;;;;0.00;0.00;;;;;;;;;;4210802;28;20198;-32
2022/04/04 03:13:45;;;;;;;1.08;0.20;;;;;;;;;;4211733;28;20056;-35
2022/04/04 03:15:46;;;;;;;0.60;0.10;;;;;;;;;;4211875;28;20044;-32
2022/04/04 03:17:49;;;;;;;0.00;0.00;;;;;;;;;;4212235;28;20063;-33
2022/04/04 03:19:50;;;;;;;0.20;0.10;;;;;;;;;;4211975;28;20101;-35
2022/04/04 03:21:54;;;;;;;0.10;0.00;;;;;;;;;;4212004;28;20048;-31
2022/04/04 03:23:55;;;;;;;0.32;0.10;;;;;;;;;;4211728;28;20432;-33
2022/04/04 03:25:56;;;;;;;0.00;0.00;;;;;;;;;;4211280;28;20048;-33
2022/04/04 03:27:57;;;;;;;0.10;0.00;;;;;;;;;;4210660;28;20044;-34
2022/04/04 03:29:58;;;;;;;0.00;0.00;;;;;;;;;;4211654;28;20101;-32
2022/04/04 03:31:59;;;;;;;0.00;0.00;;;;;;;;;;4211562;28;20044;-35
2022/04/04 03:34:00;;;;;;;0.20;0.00;;;;;;;;;;4211635;28;20376;-34
2022/04/04 03:36:02;;;;;;;0.10;0.10;;;;;;;;;;4211725;28;20086;-36
2022/04/04 03:38:04;;;;;;;0.10;0.08;;;;;;;;;;4211716;28;20040;-32
2022/04/04 03:40:06;;;;;;;0.00;0.00;;;;;;;;;;4211507;28;20070;-31
2022/04/04 03:42:08;;;;;;;0.22;0.10;;;;;;;;;;4211568;28;20044;-34
2022/04/04 03:44:09;;;;;;;0.10;0.10;;;;;;;;;;4211783;28;20055;-34
2022/04/04 03:46:10;;;;;;;0.28;0.10;;;;;;;;;;4211746;28;20047;-32
2022/04/04 03:48:11;;;;;;;0.10;0.10;;;;;;;;;;4211681;28;20120;-32
2022/04/04 03:50:13;;;;;;;0.00;0.00;;;;;;;;;;4211321;28;20120;-33
2022/04/04 03:52:15;;;;;;;0.10;0.10;;;;;;;;;;4211637;28;20089;-32
2022/04/04 03:54:16;;;;;;;0.32;0.13;;;;;;;;;;4211460;28;20055;-33
2022/04/04 03:56:17;;;;;;;0.10;0.00;;;;;;;;;;4211029;28;20051;-34
2022/04/04 03:58:18;;;;;;;0.10;0.10;;;;;;;;;;4211490;28;20091;-35
2022/04/04 04:00:20;;;;;;;0.20;0.10;;;;;;;;;;4211511;28;20048;-34
2022/04/04 04:02:21;;;;;;;0.17;0.10;;;;;;;;;;4211375;28;20360;-32
2022/04/04 04:04:22;;;;;;;0.30;0.10;;;;;;;;;;4211420;28;20135;-33
2022/04/04 04:06:22;;;;;;;0.08;0.08;;;;;;;;;;4211262;28;20059;-33
2022/04/04 04:08:24;;;;;;;0.10;0.10;;;;;;;;;;4211462;28;20055;-36
2022/04/04 04:10:25;;;;;;;0.15;0.08;;;;;;;;;;4210794;28;20052;-35
2022/04/04 04:12:26;;;;;;;0.00;0.00;;;;;;;;;;4211381;28;20377;-31
2022/04/04 04:14:27;;;;;;;0.20;0.10;;;;;;;;;;4211173;28;20044;-34
2022/04/04 04:16:28;;;;;;;0.47;0.13;;;;;;;;;;4211166;28;20130;-36
2022/04/04 04:18:29;;;;;;;0.00;0.00;;;;;;;;;;4211227;28;20165;-34
2022/04/04 04:20:32;;;;;;;0.38;0.00;;;;;;;;;;4211523;28;20043;-31
2022/04/04 04:22:34;;;;;;;0.40;0.20;;;;;;;;;;4209941;28;20072;-32
2022/04/04 04:24:35;;;;;;;0.08;0.08;;;;;;;;;;4210810;28;20054;-36
2022/04/04 04:26:36;;;;;;;0.10;0.00;;;;;;;;;;4211514;28;20052;-35
2022/04/04 04:28:37;;;;;;;0.10;0.10;;;;;;;;;;4211131;28;20090;-33
2022/04/04 04:30:39;;;;;;;0.10;0.10;;;;;;;;;;4211072;28;20124;-33
2022/04/04 04:32:44;;;;;;;0.10;0.00;;;;;;;;;;4211428;28;20063;-33
2022/04/04 04:34:46;;;;;;;0.20;0.10;;;;;;;;;;4209831;28;20528;-31
2022/04/04 04:36:48;;;;;;;0.10;0.10;;;;;;;;;;4211330;28;20352;-34
2022/04/04 04:38:49;;;;;;;0.22;0.10;;;;;;;;;;4211245;28;20085;-35
2022/04/04 04:40:50;;;;;;;0.28;0.10;;;;;;;;;;4210813;28;20052;-33
2022/04/04 04:42:51;;;;;;;0.30;0.20;;;;;;;;;;4211335;28;20443;-34
2022/04/04 04:44:52;;;;;;;0.10;0.10;;;;;;;;;;4210912;28;20385;-32
2022/04/04 04:46:53;;;;;;;0.10;0.10;;;;;;;;;;4213118;28;20214;-34
2022/04/04 04:48:54;;;;;;;0.00;0.00;;;;;;;;;;4214241;28;20297;-31
2022/04/04 04:50:55;;;;;;;0.20;0.10;;;;;;;;;;4213927;28;20052;-32
2022/04/04 04:52:56;;;;;;;1.40;0.20;;;;;;;;;;4214220;28;20047;-32
2022/04/04 04:54:57;;;;;;;0.40;0.20;;;;;;;;;;4213684;28;20074;-34
2022/04/04 04:56:58;;;;;;;0.10;0.10;;;;;;;;;;4214201;28;20048;-32
2022/04/04 04:58:59;;;;;;;0.40;0.20;;;;;;;;;;4214281;28;20500;-32
2022/04/04 05:01:00;;;;;;;0.63;0.10;;;;;;;;;;4210832;28;20139;-33
2022/04/04 05:05:21;;;;;;;0.35;0.17;;;;;;;;;;4212262;28;20157;-33
2022/04/04 05:07:23;;;;;;;0.25;0.10;;;;;;;;;;4211873;28;20337;-35
2022/04/04 05:09:24;;;;;;;0.63;0.20;;;;;;;;;;4212002;28;20052;-32
2022/04/04 05:11:25;;;;;;;0.45;0.25;;;;;;;;;;4211448;28;20425;-34
2022/04/04 05:13:27;;;;;;;1.00;0.10;;;;;;;;;;4209911;28;20056;-32
2022/04/04 05:15:27;;;;;;;0.98;0.13;;;;;;;;;;4205650;28;20124;-31
2022/04/04 05:17:28;;;;;;;0.30;0.10;;;;;;;;;;4194901;28;20492;-32
2022/04/04 05:19:30;;;;;;;0.30;0.20;;;;;;;;;;4194924;28;20151;-37
2022/04/04 05:21:31;;;;;;;0.55;0.15;;;;;;;;;;4197192;28;20106;-38
2022/04/04 05:23:34;;;;;;;0.10;0.10;;;;;;;;;;4201175;28;20101;-35
2022/04/04 05:25:35;;;;;;;0.10;0.10;;;;;;;;;;4198424;28;20097;-34
2022/04/04 05:27:36;;;;;;;0.35;0.10;;;;;;;;;;4200547;28;20126;-35
2022/04/04 05:29:37;;;;;;;0.40;0.10;;;;;;;;;;4210451;28;20422;-37
2022/04/04 05:31:38;;;;;;;1.85;0.45;;;;;;;;;;4210890;28;20066;-34
2022/04/04 05:33:39;;;;;;;0.25;0.10;;;;;;;;;;4200259;28;20875;-35
2022/04/04 05:35:40;;;;;;;0.15;0.10;;;;;;;;;;4202749;28;20058;-33
2022/04/04 05:37:42;;;;;;;0.40;0.13;;;;;;;;;;4197134;28;20492;-31
2022/04/04 05:39:43;;;;;;;1.17;0.30;;;;;;;;;;4208898;28;20098;-33
2022/04/04 05:41:44;;;;;;;0.32;0.30;;;;;;;;;;4202367;28;20048;-33
2022/04/04 05:43:46;;;;;;;0.22;0.20;;;;;;;;;;4199756;28;20097;-33
2022/04/04 05:45:48;;;;;;;0.20;0.10;;;;;;;;;;4205288;28;20052;-35
2022/04/04 05:47:49;;;;;;;0.80;0.20;;;;;;;;;;4200119;28;20090;-34
2022/04/04 05:49:50;;;;;;;1.52;0.10;;;;;;;;;;4194501;28;20052;-35
2022/04/04 05:51:51;;;;;;;0.35;0.10;;;;;;;;;;4205021;28;20075;-35
2022/04/04 05:53:52;;;;;;;2.05;0.20;;;;;;;;;;4200440;28;20493;-38
2022/04/04 05:55:53;;;;;;;0.47;0.25;;;;;;;;;;4193328;28;20043;-34
2022/04/04 05:57:54;;;;;;;1.40;0.15;;;;;;;;;;4192829;28;20530;-36
2022/04/04 05:59:56;;;;;;;0.40;0.10;;;;;;;;;;4197645;28;20085;-33
2022/04/04 06:01:57;;;;;;;2.92;0.35;;;;;;;;;;4196558;28;20105;-37
2022/04/04 06:03:59;;;;;;;1.27;0.10;;;;;;;;;;4190462;28;20051;-40
2022/04/04 06:06:01;;;;;;;0.95;0.30;;;;;;;;;;4187085;28;20681;-39
2022/04/04 06:08:02;;;;;;;0.17;0.13;;;;;;;;;;4192302;28;20044;-37
2022/04/04 06:10:04;;;;;;;1.42;0.73;;;;;;;;;;4200248;28;20070;-37
2022/04/04 06:12:05;;;;;;;2.22;0.28;;;;;;;;;;4192403;28;20102;-37
2022/04/04 06:14:06;;;;;;;1.42;0.30;;;;;;;;;;4181302;28;20104;-35
2022/04/04 06:16:09;;;;;;;0.32;0.30;;;;;;;;;;4187960;28;20043;-38
2022/04/04 06:18:10;;;;;;;1.65;0.20;;;;;;;;;;4189277;28;20044;-40
2022/04/04 06:20:12;;;;;;;2.72;0.30;;;;;;;;;;4192399;28;20838;-39
2022/04/04 06:22:13;;;;;;;0.55;0.20;;;;;;;;;;4183182;28;20052;-40
2022/04/04 06:24:15;;;;;;;2.70;0.20;;;;;;;;;;4179886;28;20044;-40
2022/04/04 06:26:16;;;;;;;0.85;0.10;;;;;;;;;;4170263;28;20063;-41
2022/04/04 06:28:17;;;;;;;1.98;0.30;;;;;;;;;;4171830;28;20469;-41
2022/04/04 06:30:17;;;;;;;2.42;0.20;;;;;;;;;;4168158;28;20052;-40
2022/04/04 06:32:18;;;;;;;9.27;0.50;;;;;;;;;;4183212;28;20055;-40
2022/04/04 06:34:19;;;;;;;0.38;0.20;;;;;;;;;;4182359;28;20040;-39
2022/04/04 06:36:23;;;;;;;0.38;0.20;;;;;;;;;;4184548;28;20097;-41
2022/04/04 06:38:24;;;;;;;3.45;0.30;;;;;;;;;;4190268;28;20049;-40
2022/04/04 06:40:25;;;;;;;1.08;0.30;;;;;;;;;;4193834;28;20048;-40
2022/04/04 06:42:26;;;;;;;1.55;0.20;;;;;;;;;;4188684;28;20543;-38
2022/04/04 06:44:27;;;;;;;0.77;0.30;;;;;;;;;;4182894;28;20109;-40
2022/04/04 06:46:28;;;;;;;1.17;0.20;;;;;;;;;;4187173;28;20117;-40
2022/04/04 06:48:30;;;;;;;1.30;0.30;;;;;;;;;;4184273;28;20097;-41
2022/04/04 06:50:31;;;;;;;0.93;0.45;;;;;;;;;;4187397;28;20492;-39
2022/04/04 06:52:32;;;;;;;0.85;0.30;;;;;;;;;;4184347;28;20149;-41
2022/04/04 06:54:33;;;;;;;1.55;0.20;;;;;;;;;;4186066;28;20539;-41
2022/04/04 06:56:34;;;;;;;0.73;0.40;;;;;;;;;;4188000;28;20464;-40
2022/04/04 06:58:35;;;;;;;2.20;0.30;;;;;;;;;;4187798;28;20048;-41
2022/04/04 07:00:36;;;;;;;1.10;0.22;;;;;;;;;;4183446;28;20104;-40
2022/04/04 07:02:38;;;;;;;1.50;0.30;;;;;;;;;;4176532;28;20113;-41
2022/04/04 07:04:40;;;;;;;2.10;0.52;;;;;;;;;;4165124;28;20125;-41
2022/04/04 07:06:42;;;;;;;3.53;0.30;;;;;;;;;;4165841;28;20499;-40
2022/04/04 07:08:43;;;;;;;1.42;0.30;;;;;;;;;;4166506;28;21153;-43
2022/04/04 07:10:45;;;;;;;2.50;0.30;;;;;;;;;;4164452;28;20702;-43
2022/04/04 07:12:46;;;;;;;4.03;0.40;;;;;;;;;;4174955;28;20113;-38
2022/04/04 07:14:47;;;;;;;2.42;0.30;;;;;;;;;;4173006;28;20055;-39
2022/04/04 07:16:52;;;;;;;1.02;0.30;;;;;;;;;;4166939;28;20524;-42
2022/04/04 07:18:53;;;;;;;1.88;0.30;;;;;;;;;;4168200;28;20173;-42
2022/04/04 07:20:54;;;;;;;1.02;0.30;;;;;;;;;;4174494;28;20228;-43
2022/04/04 07:22:55;;;;;;;2.95;0.30;;;;;;;;;;4179144;28;20533;-43
2022/04/04 07:24:56;;;;;;;1.60;0.50;;;;;;;;;;4169239;28;20047;-40
2022/04/04 07:26:57;;;;;;;1.67;0.40;;;;;;;;;;4177570;28;20521;-42
2022/04/04 07:28:58;;;;;;;0.75;0.30;;;;;;;;;;4176026;28;20117;-43
2022/04/04 07:31:00;;;;;;;3.40;0.30;;;;;;;;;;4166886;28;20766;-41
2022/04/04 07:33:04;;;;;;;1.95;0.22;;;;;;;;;;4163458;28;20056;-41
2022/04/04 07:35:06;;;;;;;0.55;0.20;;;;;;;;;;4164338;28;20072;-40
2022/04/04 07:37:06;;;;;;;1.13;0.35;;;;;;;;;;4178025;28;20083;-42
2022/04/04 07:39:08;;;;;;;0.82;0.43;;;;;;;;;;4183155;28;20442;-41
2022/04/04 07:41:09;;;;;;;3.25;0.30;;;;;;;;;;4183618;28;20060;-40
2022/04/04 07:43:11;;;;;;;1.10;0.30;;;;;;;;;;4179669;28;20045;-41
2022/04/04 07:45:13;;;;;;;1.25;0.47;;;;;;;;;;4179210;28;20129;-40
2022/04/04 07:47:14;;;;;;;0.82;0.30;;;;;;;;;;4182565;28;20650;-41
2022/04/04 07:49:17;;;;;;;1.20;0.30;;;;;;;;;;4182537;28;20377;-41
2022/04/04 07:51:19;;;;;;;0.60;0.30;;;;;;;;;;4183016;28;20053;-40
2022/04/04 07:53:20;;;;;;;1.15;0.40;;;;;;;;;;4173037;28;20059;-41
2022/04/04 07:55:21;;;;;;;2.72;0.38;;;;;;;;;;4178283;28;20043;-40
2022/04/04 07:57:24;;;;;;;2.92;0.40;;;;;;;;;;4184091;28;20052;-39
2022/04/04 07:59:25;;;;;;;0.85;0.40;;;;;;;;;;4184070;28;22659;-41
2022/04/04 08:01:26;;;;;;;0.60;0.20;;;;;;;;;;4175744;28;20074;-42
2022/04/04 08:03:27;;;;;;;1.83;0.32;;;;;;;;;;4170580;28;20056;-42
2022/04/04 08:05:28;;;;;;;0.95;0.50;;;;;;;;;;4169830;28;20186;-43
2022/04/04 08:07:29;;;;;;;2.08;0.50;;;;;;;;;;4177932;28;20082;-42
2022/04/04 08:09:31;;;;;;;1.35;0.40;;;;;;;;;;4184034;28;20364;-41
2022/04/04 08:11:32;;;;;;;2.13;0.22;;;;;;;;;;4182295;28;20466;-36
2022/04/04 08:13:33;;;;;;;2.78;0.28;;;;;;;;;;4182381;28;20064;-39
2022/04/04 08:15:34;;;;;;;0.50;0.40;;;;;;;;;;4179592;28;20475;-43
2022/04/04 08:17:36;;;;;;;2.25;0.35;;;;;;;;;;4178564;28;20142;-40
2022/04/04 08:19:37;;;;;;;0.85;0.30;;;;;;;;;;4172875;28;20048;-41
2022/04/04 08:21:41;;;;;;;0.50;0.20;;;;;;;;;;4182486;28;20052;-40
2022/04/04 08:23:43;;;;;;;0.50;0.38;;;;;;;;;;4181693;28;20109;-44
2022/04/04 08:25:44;;;;;;;1.42;0.30;;;;;;;;;;4175571;28;20105;-42
2022/04/04 08:27:45;;;;;;;1.30;0.30;;;;;;;;;;4177976;28;20590;-41
2022/04/04 08:29:46;;;;;;;0.75;0.40;;;;;;;;;;4181732;28;20086;-42
2022/04/04 08:31:47;;;;;;;0.40;0.30;;;;;;;;;;4171770;28;20105;-43
2022/04/04 08:33:48;;;;;;;1.60;0.20;;;;;;;;;;4184984;28;20155;-38
2022/04/04 08:35:52;;;;;;;0.73;0.30;;;;;;;;;;4178296;28;20044;-41
2022/04/04 08:37:53;;;;;;;0.40;0.20;;;;;;;;;;4180120;28;20212;-39
2022/04/04 08:39:54;;;;;;;0.75;0.30;;;;;;;;;;4183856;28;20045;-40
2022/04/04 08:41:56;;;;;;;0.82;0.35;;;;;;;;;;4183395;28;21583;-39
2022/04/04 08:43:57;;;;;;;1.42;0.40;;;;;;;;;;4181849;28;20129;-41
2022/04/04 08:45:59;;;;;;;1.15;0.20;;;;;;;;;;4181794;28;20056;-44
2022/04/04 08:48:00;;;;;;;0.22;0.10;;;;;;;;;;4180989;28;20056;-43
2022/04/04 08:50:02;;;;;;;1.27;0.20;;;;;;;;;;4186390;28;20056;-41
2022/04/04 08:52:03;;;;;;;1.63;0.20;;;;;;;;;;4185050;28;20121;-42
2022/04/04 08:54:05;;;;;;;0.88;0.22;;;;;;;;;;4181177;28;20125;-41
2022/04/04 08:56:08;;;;;;;1.88;0.20;;;;;;;;;;4177177;28;20491;-42
2022/04/04 08:58:10;;;;;;;0.25;0.20;;;;;;;;;;4195345;28;20071;-41
2022/04/04 09:00:11;;;;;;;0.20;0.20;;;;;;;;;;4175369;28;20047;-42
2022/04/04 09:02:15;;;;;;;1.98;0.32;;;;;;;;;;4171733;28;20445;-38
2022/04/04 09:04:17;;;;;;;0.75;0.30;;;;;;;;;;4177345;28;20047;-40
2022/04/04 09:06:18;;;;;;;0.68;0.22;;;;;;;;;;4173461;28;20056;-41
2022/04/04 09:08:20;;;;;;;1.95;0.30;;;;;;;;;;4180928;28;20621;-43
2022/04/04 09:10:29;;;;;;;1.27;0.30;;;;;;;;;;4185445;28;20098;-41
2022/04/04 09:12:30;;;;;;;2.08;0.35;;;;;;;;;;4184006;28;20074;-42
2022/04/04 09:14:33;;;;;;;0.95;0.22;;;;;;;;;;4183658;28;20063;-42
2022/04/04 09:16:34;;;;;;;0.95;0.30;;;;;;;;;;4186557;28;20177;-41
2022/04/04 09:18:35;;;;;;;1.40;0.30;;;;;;;;;;4186571;28;20201;-41
2022/04/04 09:20:46;;;;;;;1.35;0.30;;;;;;;;;;4189936;28;20093;-43
2022/04/04 09:22:53;;;;;;;0.65;0.30;;;;;;;;;;4181001;28;20499;-42
2022/04/04 09:24:56;;;;;;;1.10;0.20;;;;;;;;;;4187785;28;20055;-42
2022/04/04 09:26:57;;;;;;;0.70;0.30;;;;;;;;;;4183346;28;20052;-43
2022/04/04 09:28:59;;;;;;;1.35;0.30;;;;;;;;;;4189172;28;20052;-40
2022/04/04 09:31:07;;;;;;;0.38;0.30;;;;;;;;;;4180781;28;20107;-42
2022/04/04 09:33:12;;;;;;;0.30;0.20;;;;;;;;;;4179368;28;20141;-42
2022/04/04 09:35:14;;;;;;;0.93;0.30;;;;;;;;;;4185475;28;20760;-42
2022/04/04 09:37:19;;;;;;;0.25;0.20;;;;;;;;;;4184911;28;20055;-44
2022/04/04 09:39:20;;;;;;;0.73;0.20;;;;;;;;;;4189584;28;21052;-45
2022/04/04 09:41:22;;;;;;;3.42;0.30;;;;;;;;;;4183047;28;20051;-41
2022/04/04 09:43:23;;;;;;;0.68;0.20;;;;;;;;;;4188797;28;20530;-42
2022/04/04 09:45:25;;;;;;;1.17;0.30;;;;;;;;;;4188308;28;20059;-42
2022/04/04 09:47:45;;;;;;;0.43;0.13;;;;;;;;;;4194327;28;20068;-43
2022/04/04 09:49:46;;;;;;;0.38;0.22;;;;;;;;;;4184867;28;20090;-44
2022/04/04 09:51:48;;;;;;;1.80;0.40;;;;;;;;;;4188390;28;20059;-41
2022/04/04 09:54:00;;;;;;;1.73;0.20;;;;;;;;;;4179029;28;20980;-44
2022/04/04 09:56:02;;;;;;;2.15;0.25;;;;;;;;;;4171729;28;20048;-44
2022/04/04 09:58:08;;;;;;;0.60;0.20;;;;;;;;;;4177856;28;20407;-43
2022/04/04 10:00:11;;;;;;;0.63;0.20;;;;;;;;;;4172050;28;20052;-44
2022/04/04 10:02:13;;;;;;;0.98;0.30;;;;;;;;;;4176705;28;20044;-42
2022/04/04 10:04:14;;;;;;;1.05;0.30;;;;;;;;;;4166948;28;20420;-43
2022/04/04 10:06:16;;;;;;;1.60;0.30;;;;;;;;;;4180840;28;20517;-42
2022/04/04 10:08:17;;;;;;;2.45;0.47;;;;;;;;;;4175306;28;21126;-43
2022/04/04 10:10:18;;;;;;;1.05;0.20;;;;;;;;;;4190318;28;20052;-43
2022/04/04 10:12:19;;;;;;;0.65;0.20;;;;;;;;;;4191097;28;20048;-43
2022/04/04 10:14:21;;;;;;;0.50;0.30;;;;;;;;;;4185979;28;20485;-43
2022/04/04 10:16:23;;;;;;;0.30;0.30;;;;;;;;;;4192534;28;20112;-42
2022/04/04 10:18:24;;;;;;;0.88;0.30;;;;;;;;;;4192746;28;20040;-43
2022/04/04 10:20:25;;;;;;;0.30;0.10;;;;;;;;;;4194476;28;20048;-42
2022/04/04 10:22:27;;;;;;;0.82;0.22;;;;;;;;;;4182363;28;20116;-42
2022/04/04 10:24:28;;;;;;;1.02;0.30;;;;;;;;;;4173124;28;20059;-42
2022/04/04 10:26:33;;;;;;;0.20;0.10;;;;;;;;;;4188606;28;20113;-41
2022/04/04 10:28:35;;;;;;;0.38;0.30;;;;;;;;;;4193048;28;20048;-43
2022/04/04 10:30:41;;;;;;;0.47;0.15;;;;;;;;;;4191883;28;20101;-42
2022/04/04 10:32:52;;;;;;;0.28;0.10;;;;;;;;;;4191466;28;20051;-42
2022/04/04 10:34:54;;;;;;;2.10;0.10;;;;;;;;;;4193181;28;21119;-41
2022/04/04 10:36:59;;;;;;;0.30;0.20;;;;;;;;;;4185246;28;20126;-42
2022/04/04 10:39:00;;;;;;;4.70;0.20;;;;;;;;;;4173754;28;20605;-43
2022/04/04 10:41:03;;;;;;;0.70;0.20;;;;;;;;;;4191754;28;20052;-42
2022/04/04 10:43:07;;;;;;;2.25;0.20;;;;;;;;;;4187947;28;20419;-40
2022/04/04 10:45:09;;;;;;;0.85;0.20;;;;;;;;;;4186004;28;20052;-40
2022/04/04 10:47:20;;;;;;;0.63;0.30;;;;;;;;;;4193363;28;20565;-42
2022/04/04 10:49:22;;;;;;;1.38;0.30;;;;;;;;;;4191665;28;20157;-42
2022/04/04 10:51:26;;;;;;;2.05;0.30;;;;;;;;;;4184041;28;20483;-40
2022/04/04 10:53:41;;;;;;;1.27;0.32;;;;;;;;;;4178096;28;20079;-42
2022/04/04 10:55:43;;;;;;;1.17;0.20;;;;;;;;;;4177464;28;20457;-42
2022/04/04 10:57:44;;;;;;;0.40;0.20;;;;;;;;;;4173437;28;20059;-41
2022/04/04 10:59:46;;;;;;;3.00;0.20;;;;;;;;;;4176161;28;20129;-40
2022/04/04 11:01:51;;;;;;;0.55;0.17;;;;;;;;;;4160463;28;20565;-39
2022/04/04 11:03:57;;;;;;;1.60;0.20;;;;;;;;;;4164134;28;20113;-43
2022/04/04 11:08:31;;;;;;;2.72;0.13;;;;;;;;;;4181690;28;20131;-42
2022/04/04 11:10:42;;;;;;;0.45;0.20;;;;;;;;;;4186692;28;20151;-41
2022/04/04 11:13:00;;;;;;;5.80;0.32;;;;;;;;;;4185001;28;20059;-42
2022/04/04 11:15:06;;;;;;;1.38;0.30;;;;;;;;;;4180696;28;20989;-42
2022/04/04 11:19:42;;;;;;;0.55;0.20;;;;;;;;;;4184331;28;20105;-42
2022/04/04 11:21:44;;;;;;;4.05;0.20;;;;;;;;;;4179618;28;20044;-38
2022/04/04 11:23:46;;;;;;;0.38;0.20;;;;;;;;;;4180740;28;20129;-40
2022/04/04 11:25:52;;;;;;;1.77;0.10;;;;;;;;;;4173628;28;20196;-42
2022/04/04 11:27:54;;;;;;;0.50;0.20;;;;;;;;;;4171905;28;20985;-43
2022/04/04 11:29:55;;;;;;;0.85;0.28;;;;;;;;;;4171835;28;20400;-44
2022/04/04 11:31:56;;;;;;;2.53;0.20;;;;;;;;;;4171384;28;20112;-44
2022/04/04 11:33:57;;;;;;;0.40;0.22;;;;;;;;;;4176741;28;20145;-41
2022/04/04 11:35:59;;;;;;;0.68;0.15;;;;;;;;;;4181842;28;20063;-44
2022/04/04 11:38:01;;;;;;;0.88;0.30;;;;;;;;;;4185237;28;20388;-43
2022/04/04 11:40:06;;;;;;;1.88;0.20;;;;;;;;;;4185779;28;21047;-40
2022/04/04 11:42:07;;;;;;;1.13;0.10;;;;;;;;;;4183823;28;20052;-41
2022/04/04 11:44:11;;;;;;;0.90;0.20;;;;;;;;;;4180359;28;20817;-44
2022/04/04 11:46:14;;;;;;;1.42;0.25;;;;;;;;;;4182697;28;20140;-43
2022/04/04 11:48:24;;;;;;;0.57;0.20;;;;;;;;;;4177621;28;20063;-44
2022/04/04 11:50:28;;;;;;;1.25;0.20;;;;;;;;;;4173697;28;20568;-42
2022/04/04 11:52:30;;;;;;;0.30;0.10;;;;;;;;;;4182684;28;20524;-43
2022/04/04 11:54:41;;;;;;;0.95;0.25;;;;;;;;;;4177407;28;20044;-44
2022/04/04 11:56:44;;;;;;;1.17;0.20;;;;;;;;;;4176980;28;20047;-43
2022/04/04 11:58:51;;;;;;;0.65;0.20;;;;;;;;;;4179669;28;20043;-43
2022/04/04 12:00:55;;;;;;;1.10;0.28;;;;;;;;;;4174068;28;20048;-44
2022/04/04 12:02:56;;;;;;;1.77;0.20;;;;;;;;;;4181625;28;20055;-43
2022/04/04 12:04:59;;;;;;;2.05;0.30;;;;;;;;;;4187243;28;20044;-44
2022/04/04 12:07:01;;;;;;;2.65;0.30;;;;;;;;;;4179551;28;20055;-44
2022/04/04 12:09:07;;;;;;;0.63;0.20;;;;;;;;;;4187587;28;20052;-45
2022/04/04 12:11:09;;;;;;;1.95;0.13;;;;;;;;;;4185281;28;20054;-43
2022/04/04 12:13:12;;;;;;;3.13;0.50;;;;;;;;;;4186803;28;20067;-44
2022/04/04 12:15:12;;;;;;;0.60;0.20;;;;;;;;;;4184211;28;20063;-44
2022/04/04 12:17:14;;;;;;;8.35;0.40;;;;;;;;;;4183962;28;20040;-44
2022/04/04 12:19:15;;;;;;;5.25;0.40;;;;;;;;;;4184127;28;20079;-43
2022/04/04 12:21:17;;;;;;;2.05;0.35;;;;;;;;;;4185900;28;20051;-44